createdAt,value
2019-06-15T00:00:07.528Z,42.20
2019-06-15T00:02:33.782Z,42.20
2019-06-15T00:05:00.966Z,42.30
2019-06-15T00:07:27.189Z,42.20
2019-06-15T00:09:53.432Z,42.20
2019-06-15T00:12:19.861Z,42.20
2019-06-15T00:14:46.083Z,42.20
2019-06-15T00:17:12.291Z,42.20
2019-06-15T00:19:38.562Z,42.20
2019-06-15T00:22:04.788Z,42.20
2019-06-15T00:24:35.338Z,42.20
2019-06-15T00:26:57.429Z,42.20
2019-06-15T00:29:23.689Z,42.20
2019-06-15T00:31:49.895Z,42.10
2019-06-15T00:34:16.163Z,42.10
2019-06-15T00:36:42.414Z,42.10
2019-06-15T00:39:08.982Z,42.10
2019-06-15T00:41:35.215Z,42.10
2019-06-15T00:44:01.413Z,42.10
2019-06-15T00:46:27.872Z,42.10
2019-06-15T00:48:54.327Z,42.10
2019-06-15T00:51:20.539Z,42.10
2019-06-15T00:53:46.766Z,42.10
2019-06-15T00:56:12.990Z,42.10
2019-06-15T00:58:39.227Z,42.10
2019-06-15T01:01:05.654Z,42.10
2019-06-15T01:03:31.889Z,42.10
2019-06-15T01:05:58.130Z,42.10
2019-06-15T01:08:24.330Z,42.10
2019-06-15T01:10:50.571Z,42.10
2019-06-15T01:13:16.834Z,42.70
2019-06-15T01:15:43.046Z,42.10
2019-06-15T01:18:09.282Z,42.10
2019-06-15T01:20:35.485Z,42.10
2019-06-15T01:23:01.715Z,42.10
2019-06-15T01:25:27.951Z,42.00
2019-06-15T01:27:54.177Z,42.00
2019-06-15T01:30:20.444Z,42.00
2019-06-15T01:32:46.660Z,42.00
2019-06-15T01:35:12.932Z,42.00
2019-06-15T01:37:39.150Z,42.00
2019-06-15T01:40:05.367Z,42.00
2019-06-15T01:42:31.559Z,42.00
2019-06-15T01:44:57.772Z,42.00
2019-06-15T01:47:24.050Z,42.00
2019-06-15T01:49:50.277Z,42.00
2019-06-15T01:52:16.523Z,42.00
2019-06-15T01:54:42.907Z,42.00
2019-06-15T01:57:09.176Z,42.00
2019-06-15T01:59:35.556Z,42.00
2019-06-15T02:02:01.991Z,42.00
2019-06-15T02:04:28.253Z,42.00
2019-06-15T02:06:54.465Z,42.00
2019-06-15T02:09:20.672Z,42.00
2019-06-15T02:11:46.914Z,42.00
2019-06-15T02:14:13.142Z,42.00
2019-06-15T02:16:39.416Z,42.00
2019-06-15T02:19:05.627Z,42.00
2019-06-15T02:21:31.862Z,42.00
2019-06-15T02:23:58.066Z,42.00
2019-06-15T02:26:24.318Z,42.00
2019-06-15T02:28:50.513Z,42.00
2019-06-15T02:31:16.772Z,42.00
2019-06-15T02:33:42.993Z,42.00
2019-06-15T02:36:09.207Z,42.00
2019-06-15T02:38:35.422Z,42.00
2019-06-15T02:41:01.650Z,42.00
2019-06-15T02:43:28.089Z,42.00
2019-06-15T02:45:54.300Z,41.90
2019-06-15T02:48:20.523Z,42.00
2019-06-15T02:50:46.807Z,42.00
2019-06-15T02:53:13.030Z,42.00
2019-06-15T02:55:50.156Z,42.00
2019-06-15T02:58:05.510Z,42.00
2019-06-15T03:00:31.727Z,42.00
2019-06-15T03:02:58.120Z,42.00
2019-06-15T03:05:24.374Z,42.00
2019-06-15T03:07:50.602Z,42.00
2019-06-15T03:10:16.807Z,42.00
2019-06-15T03:12:43.242Z,42.00
2019-06-15T03:15:09.427Z,42.00
2019-06-15T03:17:35.693Z,42.00
2019-06-15T03:20:01.906Z,42.00
2019-06-15T03:22:28.194Z,42.00
2019-06-15T03:24:54.384Z,42.00
2019-06-15T03:27:20.833Z,41.90
2019-06-15T03:29:47.027Z,42.00
2019-06-15T03:32:13.260Z,41.90
2019-06-15T03:34:39.463Z,42.00
2019-06-15T03:37:07.194Z,42.00
2019-06-15T03:39:33.603Z,41.90
2019-06-15T03:41:59.829Z,42.00
2019-06-15T03:44:26.265Z,41.90
2019-06-15T03:46:52.568Z,42.00
2019-06-15T03:49:18.759Z,41.90
2019-06-15T03:51:44.973Z,41.90
2019-06-15T03:54:11.203Z,42.00
2019-06-15T03:56:37.520Z,41.90
2019-06-15T03:59:03.708Z,41.90
2019-06-15T04:01:30.691Z,42.00
2019-06-15T04:03:56.923Z,41.90
2019-06-15T04:06:23.187Z,41.90
2019-06-15T04:08:49.407Z,42.00
2019-06-15T04:11:15.644Z,41.90
2019-06-15T04:13:41.863Z,41.90
2019-06-15T04:16:08.093Z,42.00
2019-06-15T04:18:34.343Z,42.00
2019-06-15T04:21:00.721Z,42.00
2019-06-15T04:23:26.933Z,42.00
2019-06-15T04:25:53.184Z,42.00
2019-06-15T04:28:19.403Z,42.00
2019-06-15T04:30:45.663Z,42.00
2019-06-15T04:33:11.905Z,42.00
2019-06-15T04:35:38.123Z,42.70
2019-06-15T04:38:04.338Z,42.00
2019-06-15T04:40:30.529Z,42.00
2019-06-15T04:42:56.988Z,42.00
2019-06-15T04:45:23.196Z,42.00
2019-06-15T04:47:49.428Z,42.00
2019-06-15T04:50:15.651Z,42.10
2019-06-15T04:52:41.907Z,42.00
2019-06-15T04:55:08.336Z,42.10
2019-06-15T04:57:34.557Z,42.00
2019-06-15T05:00:00.787Z,42.00
2019-06-15T05:02:27.491Z,42.10
2019-06-15T05:04:53.456Z,42.00
2019-06-15T05:07:19.669Z,42.00
2019-06-15T05:09:45.885Z,42.00
2019-06-15T05:12:12.091Z,42.00
2019-06-15T05:14:38.329Z,42.00
2019-06-15T05:17:04.563Z,42.00
2019-06-15T05:19:30.852Z,42.00
2019-06-15T05:21:57.275Z,42.00
2019-06-15T05:24:23.512Z,42.00
2019-06-15T05:26:49.754Z,42.00
2019-06-15T05:29:16.880Z,42.20
2019-06-15T05:31:43.114Z,42.10
2019-06-15T05:34:09.367Z,42.10
2019-06-15T05:36:35.563Z,42.10
2019-06-15T05:39:01.805Z,42.10
2019-06-15T05:41:28.009Z,42.10
2019-06-15T05:43:54.992Z,42.20
2019-06-15T05:46:21.196Z,42.10
2019-06-15T05:48:47.826Z,42.10
2019-06-15T05:51:14.077Z,42.10
2019-06-15T05:53:40.294Z,42.20
2019-06-15T05:56:06.491Z,42.30
2019-06-15T05:58:32.710Z,42.10
2019-06-15T06:00:58.966Z,42.20
2019-06-15T06:03:25.179Z,42.30
2019-06-15T06:05:51.410Z,42.20
2019-06-15T06:08:17.626Z,42.30
2019-06-15T06:10:43.847Z,42.20
2019-06-15T06:13:10.136Z,42.30
2019-06-15T06:15:36.378Z,42.40
2019-06-15T06:18:02.631Z,42.40
2019-06-15T06:20:28.902Z,42.40
2019-06-15T06:22:55.157Z,42.30
2019-06-15T06:25:21.405Z,42.40
2019-06-15T06:27:47.640Z,42.20
2019-06-15T06:30:15.366Z,42.40
2019-06-15T06:32:41.995Z,42.40
2019-06-15T06:35:08.242Z,42.40
2019-06-15T06:37:34.451Z,42.40
2019-06-15T06:40:00.674Z,42.40
2019-06-15T06:42:26.867Z,42.50
2019-06-15T06:44:53.130Z,42.50
2019-06-15T06:47:19.383Z,42.40
2019-06-15T06:49:45.605Z,42.50
2019-06-15T06:52:11.831Z,42.70
2019-06-15T06:54:38.060Z,42.70
2019-06-15T06:57:04.291Z,42.70
2019-06-15T06:59:30.742Z,43.00
2019-06-15T07:01:56.961Z,42.90
2019-06-15T07:04:23.188Z,42.80
2019-06-15T07:06:49.414Z,42.70
2019-06-15T07:09:15.836Z,42.80
2019-06-15T07:11:42.682Z,42.70
2019-06-15T07:14:09.120Z,42.80
2019-06-15T07:16:35.347Z,42.70
2019-06-15T07:19:01.559Z,42.80
2019-06-15T07:21:27.785Z,42.80
2019-06-15T07:23:54.239Z,42.90
2019-06-15T07:26:20.437Z,43.50
2019-06-15T07:28:46.663Z,42.80
2019-06-15T07:31:12.886Z,42.80
2019-06-15T07:33:39.127Z,42.90
2019-06-15T07:36:05.368Z,42.90
2019-06-15T07:38:31.559Z,42.90
2019-06-15T07:40:57.771Z,43.10
2019-06-15T07:43:24.004Z,43.10
2019-06-15T07:45:50.262Z,43.00
2019-06-15T07:48:17.236Z,43.30
2019-06-15T07:50:43.684Z,43.20
2019-06-15T07:53:09.876Z,43.30
2019-06-15T07:55:36.068Z,43.10
2019-06-15T07:58:02.291Z,43.00
2019-06-15T08:00:28.525Z,43.20
2019-06-15T08:02:54.750Z,43.20
2019-06-15T08:05:20.985Z,43.20
2019-06-15T08:07:47.184Z,43.20
2019-06-15T08:10:13.418Z,43.20
2019-06-15T08:12:39.655Z,43.20
2019-06-15T08:15:05.929Z,43.10
2019-06-15T08:17:32.132Z,43.20
2019-06-15T08:19:58.357Z,43.20
2019-06-15T08:22:24.584Z,43.20
2019-06-15T08:24:50.832Z,43.20
2019-06-15T08:27:17.413Z,43.10
2019-06-15T08:29:43.640Z,43.10
2019-06-15T08:32:09.855Z,43.10
2019-06-15T08:34:36.107Z,43.10
2019-06-15T08:37:02.532Z,43.30
2019-06-15T08:39:28.774Z,43.30
2019-06-15T08:41:56.904Z,43.30
2019-06-15T08:44:22.242Z,43.20
2019-06-15T08:46:48.463Z,43.20
2019-06-15T08:49:14.702Z,43.30
2019-06-15T08:51:41.154Z,43.30
2019-06-15T08:54:07.365Z,43.30
2019-06-15T08:56:33.585Z,43.30
2019-06-15T08:58:59.851Z,43.20
2019-06-15T09:01:26.094Z,43.30
2019-06-15T09:03:52.323Z,43.30
2019-06-15T09:06:18.571Z,43.30
2019-06-15T09:08:45.682Z,43.30
2019-06-15T09:11:11.887Z,43.30
2019-06-15T09:13:38.238Z,43.30
2019-06-15T09:16:04.470Z,43.30
2019-06-15T09:18:30.879Z,43.30
2019-06-15T09:20:57.095Z,43.20
2019-06-15T09:23:23.354Z,43.30
2019-06-15T09:25:49.565Z,43.30
2019-06-15T09:28:15.839Z,43.30
2019-06-15T09:30:42.046Z,43.30
2019-06-15T09:33:08.285Z,43.30
2019-06-15T09:35:34.517Z,43.30
2019-06-15T09:38:00.704Z,43.30
2019-06-15T09:40:26.919Z,43.30
2019-06-15T09:42:53.147Z,43.30
2019-06-15T09:45:19.379Z,43.30
2019-06-15T09:47:45.580Z,43.40
2019-06-15T09:50:11.789Z,43.40
2019-06-15T09:52:38.736Z,43.40
2019-06-15T09:55:05.133Z,43.40
2019-06-15T09:57:31.360Z,43.30
2019-06-15T09:59:57.580Z,43.40
2019-06-15T10:02:23.762Z,43.40
2019-06-15T10:04:49.986Z,43.40
2019-06-15T10:07:16.176Z,43.30
2019-06-15T10:09:42.538Z,44.00
2019-06-15T10:12:08.760Z,43.40
2019-06-15T10:14:34.961Z,43.50
2019-06-15T10:17:01.397Z,43.50
2019-06-15T10:19:27.607Z,43.40
2019-06-15T10:21:53.861Z,43.40
2019-06-15T10:24:20.093Z,43.40
2019-06-15T10:26:46.301Z,43.40
2019-06-15T10:29:12.555Z,43.40
2019-06-15T10:31:38.795Z,43.40
2019-06-15T10:34:04.988Z,43.40
2019-06-15T10:36:31.237Z,43.30
2019-06-15T10:38:57.505Z,43.50
2019-06-15T10:41:23.736Z,43.40
2019-06-15T10:43:49.949Z,43.40
2019-06-15T10:46:16.208Z,43.40
2019-06-15T10:48:42.393Z,43.40
2019-06-15T10:51:09.455Z,43.80
2019-06-15T10:53:35.687Z,43.50
2019-06-15T10:56:01.896Z,43.40
2019-06-15T10:58:28.139Z,43.40
2019-06-15T11:00:54.369Z,43.70
2019-06-15T11:03:20.575Z,43.50
2019-06-15T11:05:46.782Z,43.40
2019-06-15T11:08:12.995Z,43.50
2019-06-15T11:10:39.234Z,43.60
2019-06-15T11:13:05.433Z,43.80
2019-06-15T11:15:31.912Z,43.80
2019-06-15T11:17:58.361Z,43.70
2019-06-15T11:20:24.594Z,43.70
2019-06-15T11:22:50.838Z,43.80
2019-06-15T11:25:17.060Z,43.80
2019-06-15T11:27:43.295Z,43.80
2019-06-15T11:30:13.558Z,43.70
2019-06-15T11:32:35.774Z,43.70
2019-06-15T11:35:01.993Z,43.80
2019-06-15T11:37:28.243Z,43.70
2019-06-15T11:39:54.447Z,43.80
2019-06-15T11:42:20.663Z,44.00
2019-06-15T11:44:46.880Z,43.80
2019-06-15T11:47:13.155Z,43.80
2019-06-15T11:49:40.137Z,43.80
2019-06-15T11:52:06.573Z,43.80
2019-06-15T11:54:32.807Z,43.80
2019-06-15T11:56:59.053Z,43.90
2019-06-15T11:59:25.300Z,43.90
2019-06-15T12:01:51.532Z,43.80
2019-06-15T12:04:17.733Z,43.90
2019-06-15T12:06:43.952Z,44.20
2019-06-15T12:09:10.173Z,44.00
2019-06-15T12:11:36.616Z,43.90
2019-06-15T12:14:02.852Z,44.00
2019-06-15T12:16:29.088Z,44.10
2019-06-15T12:18:55.303Z,44.00
2019-06-15T12:21:21.515Z,44.10
2019-06-15T12:23:47.787Z,44.00
2019-06-15T12:26:14.024Z,44.00
2019-06-15T12:28:40.243Z,44.00
2019-06-15T12:31:06.645Z,44.00
2019-06-15T12:33:32.865Z,44.00
2019-06-15T12:35:59.119Z,44.10
2019-06-15T12:38:25.545Z,44.60
2019-06-15T12:40:51.772Z,44.00
2019-06-15T12:43:17.987Z,44.00
2019-06-15T12:45:44.181Z,44.00
2019-06-15T12:48:10.421Z,44.10
2019-06-15T12:50:38.142Z,44.00
2019-06-15T12:53:04.357Z,44.00
2019-06-15T12:55:30.625Z,44.10
2019-06-15T12:57:56.868Z,44.00
2019-06-15T13:00:23.860Z,44.40
2019-06-15T13:02:50.075Z,44.10
2019-06-15T13:05:16.288Z,44.10
2019-06-15T13:07:42.524Z,44.10
2019-06-15T13:10:08.738Z,44.10
2019-06-15T13:12:34.959Z,44.10
2019-06-15T13:15:02.861Z,44.30
2019-06-15T13:17:29.063Z,44.10
2019-06-15T13:19:55.342Z,44.10
2019-06-15T13:22:21.592Z,44.10
2019-06-15T13:24:47.824Z,44.10
2019-06-15T13:27:14.021Z,44.20
2019-06-15T13:29:40.453Z,44.20
2019-06-15T13:32:06.862Z,44.20
2019-06-15T13:34:33.132Z,44.20
2019-06-15T13:36:59.338Z,44.20
2019-06-15T13:39:25.547Z,44.20
2019-06-15T13:41:51.744Z,44.10
2019-06-15T13:44:17.953Z,44.80
2019-06-15T13:46:44.194Z,44.20
2019-06-15T13:49:10.466Z,44.30
2019-06-15T13:51:36.678Z,44.30
2019-06-15T13:54:02.913Z,44.30
2019-06-15T13:56:29.713Z,44.30
2019-06-15T13:58:56.228Z,44.30
2019-06-15T14:01:33.735Z,44.30
2019-06-15T14:03:48.695Z,44.30
2019-06-15T14:06:14.936Z,44.30
2019-06-15T14:08:41.156Z,44.90
2019-06-15T14:11:07.392Z,44.30
2019-06-15T14:13:33.644Z,44.30
2019-06-15T14:16:00.836Z,44.40
2019-06-15T14:18:27.302Z,44.30
2019-06-15T14:20:55.958Z,44.40
2019-06-15T14:23:22.200Z,44.40
2019-06-15T14:25:48.419Z,44.30
2019-06-15T14:28:14.663Z,44.30
2019-06-15T14:30:40.893Z,44.30
2019-06-15T14:33:07.150Z,44.30
2019-06-15T14:35:33.538Z,44.40
2019-06-15T14:37:59.808Z,44.40
2019-06-15T14:40:26.003Z,44.30
2019-06-15T14:42:52.219Z,44.40
2019-06-15T14:45:18.511Z,44.40
2019-06-15T14:47:44.724Z,44.30
2019-06-15T14:50:11.095Z,44.30
2019-06-15T14:52:37.325Z,44.40
2019-06-15T14:55:03.532Z,44.30
2019-06-15T14:57:30.575Z,44.40
2019-06-15T15:00:04.453Z,44.40
2019-06-15T15:02:23.291Z,44.40
2019-06-15T15:04:49.534Z,44.40
2019-06-15T15:07:16.920Z,44.40
2019-06-15T15:09:42.050Z,44.30
2019-06-15T15:12:08.403Z,44.40
2019-06-15T15:14:36.529Z,44.40
2019-06-15T15:17:00.903Z,44.30
2019-06-15T15:19:27.393Z,44.40
2019-06-15T15:21:53.448Z,44.40
2019-06-15T15:24:19.668Z,44.40
2019-06-15T15:26:47.011Z,44.40
2019-06-15T15:29:12.187Z,44.30
2019-06-15T15:31:38.455Z,44.30
2019-06-15T15:34:07.652Z,44.40
2019-06-15T15:36:31.097Z,44.40
2019-06-15T15:38:57.342Z,44.40
2019-06-15T15:41:26.406Z,44.40
2019-06-15T15:43:50.624Z,44.40
2019-06-15T15:46:16.829Z,44.40
2019-06-15T15:48:43.080Z,44.40
2019-06-15T15:51:09.331Z,44.30
2019-06-15T15:53:37.305Z,44.40
2019-06-15T15:56:01.842Z,44.40
2019-06-15T15:58:28.857Z,44.40
2019-06-15T16:00:57.064Z,44.40
2019-06-15T16:03:21.353Z,44.30
2019-06-15T16:05:47.630Z,44.30
2019-06-15T16:08:16.265Z,44.90
2019-06-15T16:10:40.190Z,44.40
2019-06-15T16:13:06.653Z,44.30
2019-06-15T16:15:33.625Z,44.30
2019-06-15T16:17:59.819Z,44.30
2019-06-15T16:20:26.492Z,44.30
2019-06-15T16:22:52.363Z,44.90
2019-06-15T16:25:18.602Z,44.30
2019-06-15T16:27:46.313Z,44.20
2019-06-15T16:30:11.184Z,44.30
2019-06-15T16:32:37.469Z,44.20
2019-06-15T16:35:03.886Z,44.20
2019-06-15T16:37:30.169Z,44.20
2019-06-15T16:39:56.383Z,44.30
2019-06-15T16:42:22.756Z,44.20
2019-06-15T16:44:49.191Z,44.20
2019-06-15T16:47:16.705Z,44.20
2019-06-15T16:49:41.706Z,44.20
2019-06-15T16:52:07.930Z,44.10
2019-06-15T16:54:36.117Z,44.00
2019-06-15T16:57:00.611Z,44.10
2019-06-15T16:59:26.983Z,44.00
2019-06-15T17:01:55.910Z,43.90
2019-06-15T17:04:19.703Z,44.00
2019-06-15T17:06:46.106Z,44.00
2019-06-15T17:09:12.203Z,43.90
2019-06-15T17:11:38.427Z,43.80
2019-06-15T17:14:06.831Z,43.70
2019-06-15T17:16:31.400Z,43.70
2019-06-15T17:18:57.830Z,43.70
2019-06-15T17:21:26.018Z,43.70
2019-06-15T17:23:51.328Z,43.60
2019-06-15T17:26:17.554Z,43.50
2019-06-15T17:28:45.874Z,43.50
2019-06-15T17:31:10.419Z,43.50
2019-06-15T17:33:38.499Z,43.40
2019-06-15T17:36:03.490Z,43.40
2019-06-15T17:38:29.930Z,43.40
2019-06-15T17:40:57.082Z,43.30
2019-06-15T17:43:22.392Z,43.30
2019-06-15T17:45:48.610Z,43.30
2019-06-15T17:48:17.712Z,43.30
2019-06-15T17:50:43.947Z,43.20
2019-06-15T17:53:10.160Z,43.20
2019-06-15T17:55:36.775Z,43.20
2019-06-15T17:58:02.673Z,43.20
2019-06-15T18:00:29.665Z,43.20
2019-06-15T18:02:56.128Z,43.10
2019-06-15T18:05:22.191Z,43.10
2019-06-15T18:07:49.181Z,43.10
2019-06-15T18:10:16.032Z,43.00
2019-06-15T18:12:42.244Z,43.00
2019-06-15T18:15:08.744Z,43.00
2019-06-15T18:17:36.954Z,43.00
2019-06-15T18:20:01.585Z,43.00
2019-06-15T18:22:27.817Z,43.00
2019-06-15T18:24:54.062Z,43.50
2019-06-15T18:27:20.456Z,42.90
2019-06-15T18:29:46.710Z,42.90
2019-06-15T18:32:12.909Z,42.90
2019-06-15T18:34:39.320Z,42.80
2019-06-15T18:37:07.730Z,42.80
2019-06-15T18:39:36.900Z,42.80
2019-06-15T18:42:02.139Z,42.80
2019-06-15T18:44:28.536Z,42.80
2019-06-15T18:46:56.421Z,42.80
2019-06-15T18:49:21.285Z,42.80
2019-06-15T18:51:48.283Z,42.80
2019-06-15T18:54:15.988Z,43.40
2019-06-15T18:56:40.758Z,42.80
2019-06-15T18:59:07.489Z,42.80
2019-06-15T19:01:33.382Z,42.80
2019-06-15T19:03:59.801Z,42.80
2019-06-15T19:06:26.492Z,42.70
2019-06-15T19:08:52.430Z,42.80
2019-06-15T19:11:18.699Z,42.80
2019-06-15T19:13:46.591Z,42.70
2019-06-15T19:16:12.174Z,42.80
2019-06-15T19:18:38.402Z,42.80
2019-06-15T19:21:06.796Z,42.80
2019-06-15T19:23:30.873Z,42.70
2019-06-15T19:25:57.481Z,42.80
2019-06-15T19:28:26.533Z,42.80
2019-06-15T19:30:50.413Z,42.80
2019-06-15T19:33:16.636Z,42.80
2019-06-15T19:35:42.874Z,42.80
2019-06-15T19:38:09.090Z,42.80
2019-06-15T19:40:37.779Z,42.80
2019-06-15T19:43:02.255Z,42.80
2019-06-15T19:45:28.551Z,42.80
2019-06-15T19:47:54.808Z,42.70
2019-06-15T19:50:21.206Z,42.80
2019-06-15T19:52:47.657Z,42.80
2019-06-15T19:55:16.351Z,42.70
2019-06-15T19:57:40.969Z,42.80
2019-06-15T20:00:07.987Z,42.80
2019-06-15T20:02:36.477Z,42.70
2019-06-15T20:05:03.879Z,42.70
2019-06-15T20:07:27.720Z,42.80
2019-06-15T20:09:53.966Z,42.60
2019-06-15T20:12:22.015Z,42.70
2019-06-15T20:14:47.066Z,42.70
2019-06-15T20:17:14.067Z,42.80
2019-06-15T20:19:40.330Z,42.60
2019-06-15T20:22:07.522Z,42.80
2019-06-15T20:24:36.255Z,42.60
2019-06-15T20:27:00.108Z,42.70
2019-06-15T20:29:27.084Z,42.80
2019-06-15T20:31:52.642Z,42.80
2019-06-15T20:34:19.540Z,42.70
2019-06-15T20:36:47.145Z,42.70
2019-06-15T20:39:12.967Z,42.80
2019-06-15T20:41:39.181Z,42.70
2019-06-15T20:44:05.384Z,42.70
2019-06-15T20:46:31.656Z,42.80
2019-06-15T20:48:57.884Z,42.80
2019-06-15T20:51:24.319Z,42.70
2019-06-15T20:53:50.524Z,42.80
2019-06-15T20:56:17.123Z,42.80
2019-06-15T20:58:43.057Z,42.70
2019-06-15T21:01:09.455Z,42.80
2019-06-15T21:03:36.685Z,42.80
2019-06-15T21:06:02.129Z,42.80
2019-06-15T21:08:28.358Z,42.80
2019-06-15T21:10:56.400Z,42.70
2019-06-15T21:13:20.903Z,42.80
2019-06-15T21:15:47.626Z,42.80
2019-06-15T21:18:13.376Z,42.80
2019-06-15T21:20:39.619Z,42.80
2019-06-15T21:23:07.437Z,42.70
2019-06-15T21:25:33.682Z,42.70
2019-06-15T21:27:59.898Z,42.70
2019-06-15T21:30:27.038Z,42.80
2019-06-15T21:32:52.411Z,42.80
2019-06-15T21:35:18.830Z,42.70
2019-06-15T21:37:46.436Z,42.80
2019-06-15T21:40:11.295Z,42.80
2019-06-15T21:42:39.113Z,42.80
2019-06-15T21:45:07.604Z,42.70
2019-06-15T21:47:31.619Z,42.80
2019-06-15T21:49:58.107Z,42.80
2019-06-15T21:52:26.598Z,42.80
2019-06-15T21:54:50.606Z,42.70
2019-06-15T21:57:16.835Z,42.70
2019-06-15T21:59:43.028Z,42.80
2019-06-15T22:02:09.255Z,42.80
2019-06-15T22:04:36.834Z,42.80
2019-06-15T22:07:02.550Z,42.80
2019-06-15T22:09:28.822Z,42.80
2019-06-15T22:11:56.161Z,42.80
2019-06-15T22:14:21.325Z,42.80
2019-06-15T22:16:47.599Z,42.80
2019-06-15T22:19:13.787Z,42.70
2019-06-15T22:21:40.106Z,42.70
2019-06-15T22:24:06.869Z,42.70
2019-06-15T22:26:32.777Z,42.70
2019-06-15T22:28:58.992Z,42.80
2019-06-15T22:31:25.213Z,42.70
2019-06-15T22:33:51.449Z,42.80
2019-06-15T22:36:24.377Z,42.80
2019-06-15T22:38:46.019Z,42.80
2019-06-15T22:41:10.231Z,42.70
2019-06-15T22:43:37.229Z,42.70
2019-06-15T22:46:03.431Z,42.70
2019-06-15T22:48:29.858Z,42.80
2019-06-15T22:50:56.295Z,42.80
2019-06-15T22:53:22.370Z,43.30
2019-06-15T22:55:48.594Z,42.80
2019-06-15T22:58:17.801Z,42.80
2019-06-15T23:00:41.074Z,42.80
2019-06-15T23:03:08.082Z,42.90
2019-06-15T23:05:34.504Z,42.80
2019-06-15T23:08:00.822Z,42.80
2019-06-15T23:10:27.109Z,42.80
2019-06-15T23:12:54.170Z,42.80
2019-06-15T23:15:20.406Z,42.80
2019-06-15T23:17:46.938Z,42.80
2019-06-15T23:20:13.139Z,42.80
2019-06-15T23:22:39.364Z,42.80
2019-06-15T23:25:06.089Z,42.90
2019-06-15T23:27:32.004Z,42.80
2019-06-15T23:29:58.220Z,42.80
2019-06-15T23:32:24.433Z,42.80
2019-06-15T23:34:50.679Z,42.80
2019-06-15T23:37:16.864Z,42.80
2019-06-15T23:39:43.061Z,42.80
2019-06-15T23:42:09.347Z,42.80
2019-06-15T23:44:36.089Z,43.50
2019-06-15T23:47:02.150Z,42.90
2019-06-15T23:49:28.149Z,42.90
2019-06-15T23:51:54.368Z,42.90
2019-06-15T23:54:20.597Z,42.90
2019-06-15T23:56:46.926Z,42.80
2019-06-15T23:59:13.164Z,42.90
